Time,TemperatureF,DewpointF,PressureIn,WindDirection,WindDirectionDegrees,WindSpeedMPH,WindSpeedGustMPH,Humidity,HourlyPrecipIn,Conditions,Clouds,dailyrainin,SolarRadiationWatts/m^2,SoftwareType,DateUTC
2013-10-16 00:08:00,54.2,51.0,29.97,NE,44,1.0,2.0,90,0.00,,,0.00,0,weatherlink.com 1.10,2013-10-16 04:08:00,
2013-10-16 00:23:00,55.1,52.0,29.96,SE,133,3.0,3.0,90,0.00,,,0.00,0,weatherlink.com 1.10,2013-10-16 04:23:00,
2013-10-16 00:38:00,56.4,53.0,29.96,SSE,168,2.0,5.0,87,0.00,,,0.00,0,weatherlink.com 1.10,2013-10-16 04:38:00,
2013-10-16 00:53:00,56.7,53.0,29.95,SSE,161,4.0,4.0,87,0.00,,,0.00,0,weatherlink.com 1.10,2013-10-16 04:53:00,
2013-10-16 01:08:00,57.5,53.0,29.96,SE,136,2.0,5.0,86,0.00,,,0.00,0,weatherlink.com 1.10,2013-10-16 05:08:00,
2013-10-16 01:23:00,58.8,54.0,29.95,South,173,2.0,7.0,84,0.00,,,0.00,0,weatherlink.com 1.10,2013-10-16 05:23:00,
2013-10-16 01:38:00,59.7,55.0,29.95,SE,132,3.0,7.0,83,0.00,,,0.00,0,weatherlink.com 1.10,2013-10-16 05:38:00,
2013-10-16 01:53:00,60.3,55.0,29.95,SSE,153,3.0,8.0,82,0.00,,,0.00,0,weatherlink.com 1.10,2013-10-16 05:53:00,
2013-10-16 02:08:00,61.0,55.0,29.93,SSE,155,4.0,9.0,80,0.00,,,0.00,0,weatherlink.com 1.10,2013-10-16 06:08:00,
2013-10-16 02:23:00,61.2,55.0,29.94,SE,138,4.0,12.0,80,0.00,,,0.00,0,weatherlink.com 1.10,2013-10-16 06:23:00,
2013-10-16 02:38:00,61.4,55.0,29.93,SSE,152,6.0,9.0,79,0.00,,,0.00,0,weatherlink.com 1.10,2013-10-16 06:38:00,
2013-10-16 02:54:00,61.7,55.0,29.93,East,96,5.0,9.0,78,0.00,,,0.00,0,weatherlink.com 1.10,2013-10-16 06:54:00,
2013-10-16 03:09:00,61.8,55.0,29.93,SE,136,4.0,9.0,78,0.00,,,0.00,0,weatherlink.com 1.10,2013-10-16 07:09:00,
2013-10-16 03:24:00,62.1,55.0,29.92,SE,130,4.0,10.0,77,0.00,,,0.00,0,weatherlink.com 1.10,2013-10-16 07:24:00,
2013-10-16 03:39:00,62.1,54.0,29.92,ESE,120,4.0,7.0,76,0.00,,,0.00,0,weatherlink.com 1.10,2013-10-16 07:39:00,
2013-10-16 03:54:00,62.4,54.0,29.91,WSW,257,2.0,11.0,75,0.00,,,0.00,0,weatherlink.com 1.10,2013-10-16 07:54:00,
2013-10-16 04:09:00,62.5,55.0,29.91,SSE,167,3.0,11.0,75,0.00,,,0.00,0,weatherlink.com 1.10,2013-10-16 08:09:00,
2013-10-16 04:24:00,62.6,55.0,29.91,SE,134,3.0,8.0,75,0.00,,,0.00,0,weatherlink.com 1.10,2013-10-16 08:24:00,
2013-10-16 04:39:00,62.9,55.0,29.89,ESE,111,3.0,9.0,74,0.00,,,0.00,0,weatherlink.com 1.10,2013-10-16 08:39:00,
2013-10-16 04:54:00,63.0,54.0,29.89,South,178,5.0,15.0,73,0.00,,,0.00,0,weatherlink.com 1.10,2013-10-16 08:54:00,
2013-10-16 05:09:00,62.8,54.0,29.90,SSE,158,4.0,8.0,74,0.00,,,0.00,0,weatherlink.com 1.10,2013-10-16 09:09:00,
2013-10-16 05:24:00,63.0,54.0,29.89,SSE,160,8.0,13.0,73,0.00,,,0.00,0,weatherlink.com 1.10,2013-10-16 09:24:00,
2013-10-16 05:39:00,62.9,54.0,29.89,SSE,167,7.0,13.0,72,0.00,,,0.00,0,weatherlink.com 1.10,2013-10-16 09:39:00,
2013-10-16 05:54:00,62.7,54.0,29.88,East,86,3.0,11.0,73,0.00,,,0.00,0,weatherlink.com 1.10,2013-10-16 09:54:00,
2013-10-16 06:09:00,62.6,53.0,29.88,South,170,8.0,13.0,72,0.00,,,0.00,0,weatherlink.com 1.10,2013-10-16 10:09:00,
2013-10-16 06:24:00,62.7,53.0,29.87,ESE,121,11.0,13.0,71,0.00,,,0.00,0,weatherlink.com 1.10,2013-10-16 10:24:00,
2013-10-16 06:39:00,62.8,53.0,29.88,SE,142,3.0,13.0,71,0.00,,,0.00,0,weatherlink.com 1.10,2013-10-16 10:39:00,
2013-10-16 06:54:00,62.7,53.0,29.88,South,185,5.0,17.0,70,0.00,,,0.00,0,weatherlink.com 1.10,2013-10-16 10:54:00,
2013-10-16 07:09:00,62.6,53.0,29.87,ESE,105,1.0,8.0,70,0.00,,,0.00,0,weatherlink.com 1.10,2013-10-16 11:09:00,
2013-10-16 07:24:00,62.8,52.0,29.85,SSE,154,5.0,12.0,68,0.00,,,0.00,0,weatherlink.com 1.10,2013-10-16 11:24:00,
2013-10-16 07:39:00,62.8,52.0,29.86,East,83,7.0,13.0,67,0.00,,,0.00,5,weatherlink.com 1.10,2013-10-16 11:39:00,
2013-10-16 07:54:00,62.6,51.0,29.86,South,169,13.0,15.0,66,0.00,,,0.00,18,weatherlink.com 1.10,2013-10-16 11:54:00,
2013-10-16 08:09:00,62.5,51.0,29.86,SSE,149,9.0,11.0,66,0.00,,,0.00,33,weatherlink.com 1.10,2013-10-16 12:09:00,
2013-10-16 08:24:00,62.3,51.0,29.85,SE,144,6.0,11.0,66,0.00,,,0.00,32,weatherlink.com 1.10,2013-10-16 12:24:00,
2013-10-16 08:39:00,62.3,50.0,29.85,SSE,162,11.0,16.0,64,0.00,,,0.00,58,weatherlink.com 1.10,2013-10-16 12:39:00,
2013-10-16 08:54:00,62.4,49.0,29.85,SSE,165,9.0,14.0,63,0.00,,,0.00,63,weatherlink.com 1.10,2013-10-16 12:54:00,
2013-10-16 09:09:00,62.7,49.0,29.85,SE,138,7.0,11.0,61,0.00,,,0.00,74,weatherlink.com 1.10,2013-10-16 13:09:00,
2013-10-16 09:24:00,62.9,48.0,29.85,South,169,6.0,14.0,59,0.00,,,0.00,111,weatherlink.com 1.10,2013-10-16 13:24:00,
2013-10-16 09:39:00,63.8,47.0,29.85,SSE,155,7.0,14.0,55,0.00,,,0.00,104,weatherlink.com 1.10,2013-10-16 13:39:00,
2013-10-16 09:54:00,64.1,47.0,29.85,ESE,118,9.0,13.0,54,0.00,,,0.00,120,weatherlink.com 1.10,2013-10-16 13:54:00,
2013-10-16 10:09:00,64.5,47.0,29.85,ENE,75,2.0,8.0,54,0.00,,,0.00,151,weatherlink.com 1.10,2013-10-16 14:09:00,
2013-10-16 10:24:00,65.3,47.0,29.85,West,273,6.0,12.0,52,0.00,,,0.00,151,weatherlink.com 1.10,2013-10-16 14:24:00,
2013-10-16 10:39:00,65.5,47.0,29.85,SSE,156,10.0,15.0,51,0.00,,,0.00,109,weatherlink.com 1.10,2013-10-16 14:39:00,
2013-10-16 10:54:00,65.6,47.0,29.85,SSE,157,7.0,16.0,51,0.00,,,0.00,67,weatherlink.com 1.10,2013-10-16 14:54:00,
2013-10-16 11:09:00,63.0,51.0,29.85,NNE,26,2.0,14.0,64,0.00,,,0.00,32,weatherlink.com 1.10,2013-10-16 15:09:00,
2013-10-16 11:25:00,61.4,52.0,29.85,SE,129,6.0,13.0,70,0.00,,,0.00,90,weatherlink.com 1.10,2013-10-16 15:25:00,
2013-10-16 11:40:00,61.1,52.0,29.84,ESE,123,10.0,14.0,72,0.00,,,0.00,114,weatherlink.com 1.10,2013-10-16 15:40:00,
2013-10-16 11:55:00,60.6,52.0,29.84,SSW,204,4.0,12.0,74,0.00,,,0.00,162,weatherlink.com 1.10,2013-10-16 15:55:00,
2013-10-16 12:10:00,61.3,53.0,29.84,WNW,296,2.0,9.0,73,0.00,,,0.00,181,weatherlink.com 1.10,2013-10-16 16:10:00,
2013-10-16 12:25:00,62.6,53.0,29.83,SE,136,2.0,11.0,71,0.00,,,0.00,209,weatherlink.com 1.10,2013-10-16 16:25:00,
2013-10-16 12:40:00,64.2,53.0,29.83,SE,146,5.0,12.0,68,0.00,,,0.00,369,weatherlink.com 1.10,2013-10-16 16:40:00,
2013-10-16 12:55:00,64.6,52.0,29.82,East,92,6.0,12.0,65,0.00,,,0.00,288,weatherlink.com 1.10,2013-10-16 16:55:00,
2013-10-16 13:10:00,64.7,53.0,29.82,West,281,11.0,13.0,66,0.00,,,0.00,274,weatherlink.com 1.10,2013-10-16 17:10:00,
2013-10-16 13:25:00,66.1,53.0,29.81,SSW,192,5.0,12.0,64,0.00,,,0.00,292,weatherlink.com 1.10,2013-10-16 17:25:00,
2013-10-16 13:40:00,68.9,55.0,29.80,NW,324,4.0,18.0,61,0.00,,,0.00,580,weatherlink.com 1.10,2013-10-16 17:40:00,
2013-10-16 13:55:00,68.8,54.0,29.80,SSW,204,7.0,14.0,60,0.00,,,0.00,302,weatherlink.com 1.10,2013-10-16 17:55:00,
2013-10-16 14:10:00,67.3,54.0,29.79,WNW,286,4.0,16.0,63,0.00,,,0.00,243,weatherlink.com 1.10,2013-10-16 18:10:00,
2013-10-16 14:25:00,66.5,54.0,29.80,SW,233,1.0,11.0,65,0.00,,,0.00,128,weatherlink.com 1.10,2013-10-16 18:25:00,
2013-10-16 14:40:00,66.5,54.0,29.80,ESE,106,2.0,15.0,64,0.00,,,0.00,132,weatherlink.com 1.10,2013-10-16 18:40:00,
2013-10-16 14:55:00,66.5,54.0,29.79,SW,214,3.0,12.0,64,0.00,,,0.00,109,weatherlink.com 1.10,2013-10-16 18:55:00,
2013-10-16 15:10:00,66.6,54.0,29.78,East,83,3.0,14.0,64,0.00,,,0.00,130,weatherlink.com 1.10,2013-10-16 19:10:00,
2013-10-16 15:40:00,66.5,53.0,29.77,ESE,103,3.0,12.0,63,0.00,,,0.00,197,weatherlink.com 1.10,2013-10-16 19:40:00,
2013-10-16 15:55:00,66.7,53.0,29.77,SW,223,4.0,12.0,62,0.00,,,0.00,100,weatherlink.com 1.10,2013-10-16 19:55:00,
2013-10-16 16:10:00,66.3,54.0,29.78,West,261,3.0,8.0,64,0.00,,,0.00,28,weatherlink.com 1.10,2013-10-16 20:10:00,
2013-10-16 16:25:00,65.8,54.0,29.77,WSW,251,1.0,7.0,65,0.00,,,0.00,25,weatherlink.com 1.10,2013-10-16 20:25:00,
2013-10-16 16:40:00,65.4,54.0,29.78,SSW,200,2.0,6.0,66,0.00,,,0.00,16,weatherlink.com 1.10,2013-10-16 20:40:00,
2013-10-16 16:55:00,64.9,54.0,29.77,West,270,1.0,8.0,68,0.00,,,0.00,19,weatherlink.com 1.10,2013-10-16 20:55:00,
2013-10-16 17:10:00,64.5,54.0,29.77,South,181,1.0,5.0,68,0.00,,,0.00,14,weatherlink.com 1.10,2013-10-16 21:10:00,
2013-10-16 17:25:00,64.5,54.0,29.76,ESE,114,3.0,7.0,68,0.00,,,0.00,12,weatherlink.com 1.10,2013-10-16 21:25:00,
2013-10-16 17:40:00,64.5,55.0,29.76,South,180,3.0,10.0,70,0.00,,,0.00,0,weatherlink.com 1.10,2013-10-16 21:40:00,
2013-10-16 17:55:00,63.4,55.0,29.75,SE,143,3.0,10.0,75,0.01,,,0.01,11,weatherlink.com 1.10,2013-10-16 21:55:00,
2013-10-16 18:10:00,62.3,55.0,29.74,ESE,113,4.0,11.0,78,0.01,,,0.01,0,weatherlink.com 1.10,2013-10-16 22:10:00,
2013-10-16 18:25:00,62.5,56.0,29.74,SSE,161,1.0,10.0,79,0.01,,,0.01,0,weatherlink.com 1.10,2013-10-16 22:25:00,
2013-10-16 18:40:00,62.7,56.0,29.74,SSE,157,4.0,8.0,78,0.01,,,0.01,0,weatherlink.com 1.10,2013-10-16 22:40:00,
2013-10-16 18:55:00,62.7,55.0,29.75,SSE,167,5.0,5.0,77,0.00,,,0.01,0,weatherlink.com 1.10,2013-10-16 22:55:00,
2013-10-16 19:10:00,62.2,55.0,29.75,East,100,1.0,4.0,78,0.00,,,0.01,0,weatherlink.com 1.10,2013-10-16 23:10:00,
2013-10-16 19:25:00,61.7,55.0,29.75,South,173,1.0,5.0,78,0.00,,,0.01,0,weatherlink.com 1.10,2013-10-16 23:25:00,
2013-10-16 19:40:00,61.3,55.0,29.75,SW,230,1.0,6.0,79,0.00,,,0.01,0,weatherlink.com 1.10,2013-10-16 23:40:00,
2013-10-16 19:55:00,60.4,54.0,29.75,ESE,110,2.0,4.0,80,0.00,,,0.01,0,weatherlink.com 1.10,2013-10-16 23:55:00,
2013-10-16 20:10:00,60.0,54.0,29.74,SE,127,4.0,6.0,81,0.00,,,0.01,0,weatherlink.com 1.10,2013-10-17 00:10:00,
2013-10-16 20:25:00,59.9,54.0,29.73,South,173,2.0,7.0,81,0.00,,,0.01,0,weatherlink.com 1.10,2013-10-17 00:25:00,
2013-10-16 20:40:00,60.2,54.0,29.73,ESE,112,4.0,8.0,81,0.00,,,0.01,0,weatherlink.com 1.10,2013-10-17 00:40:00,
2013-10-16 20:55:00,60.3,54.0,29.73,SE,144,2.0,6.0,81,0.00,,,0.01,0,weatherlink.com 1.10,2013-10-17 00:55:00,
2013-10-16 21:10:00,60.4,55.0,29.73,ENE,66,3.0,6.0,82,0.00,,,0.01,0,weatherlink.com 1.10,2013-10-17 01:10:00,
2013-10-16 21:25:00,60.8,55.0,29.72,South,173,5.0,7.0,82,0.00,,,0.01,0,weatherlink.com 1.10,2013-10-17 01:25:00,
2013-10-16 21:40:00,61.1,55.0,29.72,ESE,117,4.0,10.0,81,0.00,,,0.01,0,weatherlink.com 1.10,2013-10-17 01:40:00,
2013-10-16 21:55:00,61.3,55.0,29.72,East,92,5.0,7.0,81,0.00,,,0.01,0,weatherlink.com 1.10,2013-10-17 01:55:00,
2013-10-16 22:10:00,61.4,56.0,29.72,SSW,212,2.0,8.0,81,0.00,,,0.01,0,weatherlink.com 1.10,2013-10-17 02:10:00,
2013-10-16 22:25:00,61.3,56.0,29.71,SSE,161,2.0,8.0,82,0.00,,,0.01,0,weatherlink.com 1.10,2013-10-17 02:25:00,
2013-10-16 22:40:00,60.6,56.0,29.72,SSW,212,3.0,6.0,84,0.01,,,0.02,0,weatherlink.com 1.10,2013-10-17 02:40:00,
2013-10-16 22:55:00,59.7,56.0,29.73,West,278,1.0,6.0,87,0.03,,,0.04,0,weatherlink.com 1.10,2013-10-17 02:55:00,
2013-10-16 23:10:00,59.1,56.0,29.72,SSE,167,4.0,6.0,89,0.08,,,0.09,0,weatherlink.com 1.10,2013-10-17 03:10:00,
2013-10-16 23:25:00,58.6,56.0,29.72,NW,307,2.0,7.0,90,0.15,,,0.16,0,weatherlink.com 1.10,2013-10-17 03:25:00,
2013-10-16 23:40:00,58.5,56.0,29.71,ESE,109,2.0,9.0,91,0.19,,,0.21,0,weatherlink.com 1.10,2013-10-17 03:40:00,
2013-10-16 23:55:00,58.5,56.0,29.71,ESE,105,4.0,13.0,91,0.18,,,0.23,0,weatherlink.com 1.10,2013-10-17 03:55:00,